Time;durP1;ratioP1;P1;durP2;ratioP2;P2;SDS_P1;SDS_P2;PMS_P1;PMS_P2;Temp;Humidity;BMP_temperature;BMP_pressure;BME280_temperature;BME280_humidity;BME280_pressure;Samples;Min_cycle;Max_cycle;Signal;HPM_P1;HPM_P2
2021/09/08 00:00:55;;;;;;;11.13;1.57;;;;;;;;;;4797290;28;20268;-81
2021/09/08 00:03:18;;;;;;;16.37;2.17;;;;;;;;;;4785082;28;20699;-80
2021/09/08 00:05:41;;;;;;;13.07;1.80;;;;;;;;;;4784523;28;20196;-79
2021/09/08 00:08:04;;;;;;;13.37;1.83;;;;;;;;;;4799655;28;20180;-80
2021/09/08 00:10:26;;;;;;;14.60;1.90;;;;;;;;;;4798969;28;20192;-81
2021/09/08 00:12:50;;;;;;;15.03;1.97;;;9.90;36.90;;;;;;4798794;28;20254;-81
2021/09/08 00:15:14;;;;;;;24.40;3.00;;;9.80;37.70;;;;;;4799186;28;20246;-81
2021/09/08 00:17:37;;;;;;;13.97;1.93;;;;;;;;;;4799286;28;20208;-81
2021/09/08 00:19:59;;;;;;;15.07;1.93;;;;;;;;;;4782174;28;20283;-80
2021/09/08 00:22:22;;;;;;;13.37;1.90;;;;;;;;;;4798663;28;20278;-81
2021/09/08 00:24:45;;;;;;;11.23;1.57;;;;;;;;;;4799223;28;20752;-81
2021/09/08 00:27:07;;;;;;;19.50;2.47;;;;;;;;;;4798755;28;20245;-74
2021/09/08 00:29:31;;;;;;;13.20;1.80;;;9.70;36.30;;;;;;4799279;28;20195;-74
2021/09/08 00:31:55;;;;;;;8.80;1.30;;;;;;;;;;4799516;28;20251;-74
2021/09/08 00:34:17;;;;;;;25.37;3.27;;;;;;;;;;4798126;28;20212;-76
2021/09/08 00:36:42;;;;;;;16.00;2.17;;;;;;;;;;4791012;28;20188;-73
2021/09/08 00:39:05;;;;;;;18.50;2.37;;;;;;;;;;4799229;28;20188;-75
2021/09/08 00:41:31;;;;;;;13.23;1.80;;;9.60;37.10;;;;;;4799314;28;20266;-74
2021/09/08 00:43:54;;;;;;;13.40;1.83;;;;;;;;;;4781331;28;20627;-75
2021/09/08 00:46:19;;;;;;;21.43;2.70;;;9.60;36.70;;;;;;4799003;28;20184;-79
2021/09/08 00:48:43;;;;;;;12.10;1.60;;;;;;;;;;4798656;28;20650;-73
2021/09/08 00:51:06;;;;;;;22.73;2.87;;;;;;;;;;4798850;28;20254;-76
2021/09/08 00:53:30;;;;;;;15.37;2.10;;;9.50;36.30;;;;;;4798616;28;20602;-73
2021/09/08 00:55:54;;;;;;;15.53;2.03;;;;;;;;;;4797975;28;20239;-76
2021/09/08 00:58:19;;;;;;;14.23;1.93;;;;;;;;;;4798876;28;20188;-74
2021/09/08 01:00:45;;;;;;;74.03;8.60;;;;;;;;;;4797138;28;20213;-76
2021/09/08 01:03:10;;;;;;;19.00;2.47;;;9.40;37.40;;;;;;4789932;28;20228;-73
2021/09/08 01:05:37;;;;;;;17.83;2.33;;;;;;;;;;4798528;28;20271;-73
2021/09/08 01:08:02;;;;;;;15.87;2.13;;;9.40;37.40;;;;;;4799137;28;20594;-73
2021/09/08 01:10:26;;;;;;;11.93;1.70;;;;;;;;;;4799046;28;20196;-74
2021/09/08 01:12:48;;;;;;;13.10;1.80;;;;;;;;;;4799075;28;20200;-80
2021/09/08 01:15:13;;;;;;;25.17;3.17;;;9.40;36.80;;;;;;4781098;28;20228;-74
2021/09/08 01:17:37;;;;;;;11.33;1.53;;;;;;;;;;4798678;28;20208;-74
2021/09/08 01:20:01;;;;;;;10.63;1.50;;;9.30;37.70;;;;;;4798469;28;20764;-73
2021/09/08 01:22:30;;;;;;;12.93;1.87;;;9.20;38.20;;;;;;4800847;28;20223;-73
2021/09/08 01:24:53;;;;;;;8.63;1.30;;;9.20;39.00;;;;;;4802807;28;20197;-74
2021/09/08 01:27:16;;;;;;;20.07;2.60;;;;;;;;;;4801207;28;20722;-73
2021/09/08 01:29:39;;;;;;;14.97;2.00;;;;;;;;;;4802603;28;20222;-73
2021/09/08 01:32:02;;;;;;;13.00;1.73;;;;;;;;;;4802133;28;20597;-73
2021/09/08 01:34:24;;;;;;;10.13;1.47;;;;;;;;;;4801988;28;20557;-74
2021/09/08 01:36:47;;;;;;;18.33;2.40;;;;;;;;;;4801503;28;20200;-76
2021/09/08 01:39:16;;;;;;;14.17;1.90;;;8.90;38.50;;;;;;4801461;28;20658;-73
2021/09/08 01:41:40;;;;;;;13.83;1.83;;;8.90;38.00;;;;;;4784821;28;20232;-74
2021/09/08 01:44:03;;;;;;;16.77;2.13;;;8.90;37.70;;;;;;4802053;28;20213;-79
2021/09/08 01:46:25;;;;;;;12.97;1.80;;;;;;;;;;4784533;28;20579;-73
2021/09/08 01:48:48;;;;;;;17.93;2.37;;;;;;;;;;4801025;28;20196;-77
2021/09/08 01:51:11;;;;;;;15.27;1.97;;;;;;;;;;4797638;28;20230;-77
2021/09/08 01:53:34;;;;;;;12.97;1.73;;;;;;;;;;4801610;28;20196;-75
2021/09/08 01:55:56;;;;;;;12.13;1.67;;;;;;;;;;4801882;28;20222;-74
2021/09/08 01:58:20;;;;;;;13.37;1.87;;;8.70;37.70;;;;;;4801248;28;20196;-73
2021/09/08 02:00:43;;;;;;;93.00;10.80;;;;;;;;;;4782599;28;20189;-72
2021/09/08 02:03:06;;;;;;;16.07;2.17;;;;;;;;;;4771714;28;20232;-73
2021/09/08 02:05:29;;;;;;;12.13;1.63;;;;;;;;;;4801768;28;20184;-73
2021/09/08 02:07:51;;;;;;;11.17;1.60;;;;;;;;;;4801733;28;20195;-75
2021/09/08 02:10:14;;;;;;;28.57;3.63;;;8.60;37.20;;;;;;4782898;28;20189;-75
2021/09/08 02:12:39;;;;;;;12.23;1.77;;;;;;;;;;4801525;28;20740;-75
2021/09/08 02:15:04;;;;;;;12.70;1.77;;;8.60;36.60;;;;;;4801422;28;20600;-74
2021/09/08 02:17:26;;;;;;;9.43;1.40;;;;;;;;;;4801131;28;20212;-75
2021/09/08 02:19:49;;;;;;;16.83;2.37;;;;;;;;;;4797144;28;20220;-75
2021/09/08 02:22:12;;;;;;;16.97;2.27;;;;;;;;;;4801708;28;20208;-75
2021/09/08 02:24:35;;;;;;;13.73;1.87;;;;;;;;;;4801446;28;20282;-74
2021/09/08 02:26:57;;;;;;;10.30;1.50;;;;;;;;;;4800964;28;20184;-74
2021/09/08 02:29:20;;;;;;;10.03;1.40;;;;;;;;;;4801417;28;20247;-75
2021/09/08 02:31:44;;;;;;;9.70;1.40;;;8.50;36.20;;;;;;4783387;28;20216;-76
2021/09/08 02:34:07;;;;;;;16.73;2.23;;;;;;;;;;4800069;28;20184;-74
2021/09/08 02:36:29;;;;;;;12.40;1.73;;;;;;;;;;4800820;28;20596;-73
2021/09/08 02:38:52;;;;;;;11.37;1.63;;;;;;;;;;4801396;28;20218;-73
2021/09/08 02:41:15;;;;;;;12.07;1.73;;;;;;;;;;4800228;28;20625;-75
2021/09/08 02:43:38;;;;;;;12.53;1.70;;;;;;;;;;4784148;28;20650;-74
2021/09/08 02:46:02;;;;;;;13.60;1.93;;;;;;;;;;4782983;28;20686;-73
2021/09/08 02:48:27;;;;;;;13.07;1.80;;;8.30;37.70;;;;;;4800499;28;20661;-81
2021/09/08 02:50:49;;;;;;;23.67;3.07;;;;;;;;;;4801235;28;20275;-83
2021/09/08 02:53:12;;;;;;;20.43;2.77;;;;;;;;;;4799912;28;20661;-84
2021/09/08 02:55:35;;;;;;;15.03;2.07;;;;;;;;;;4783420;28;20223;-83
2021/09/08 02:57:58;;;;;;;9.87;1.43;;;;;;;;;;4801264;28;20239;-83
2021/09/08 03:00:21;;;;;;;13.13;1.80;;;7.30;36.70;;;;;;4800977;28;20192;-81
2021/09/08 03:02:43;;;;;;;8.30;1.27;;;;;;;;;;4793793;28;20279;-83
2021/09/08 03:05:08;;;;;;;13.87;1.83;;;8.20;36.40;;;;;;4766004;28;20791;-82
2021/09/08 03:07:31;;;;;;;15.43;2.17;;;8.20;36.10;;;;;;4799782;28;20243;-81
2021/09/08 03:09:54;;;;;;;9.07;1.43;;;;;;;;;;4765070;29;20210;-85
2021/09/08 03:12:17;;;;;;;28.37;3.70;;;;;;;;;;4796707;28;20662;-83
2021/09/08 03:14:39;;;;;;;14.77;2.03;;;;;;;;;;4800710;28;20195;-82
2021/09/08 03:17:02;;;;;;;10.63;1.57;;;;;;;;;;4800289;28;20211;-84
2021/09/08 03:19:25;;;;;;;7.80;1.23;;;;;;;;;;4799836;28;20231;-85
2021/09/08 03:21:48;;;;;;;10.60;1.50;;;8.20;36.20;;;;;;4800625;28;20252;-84
2021/09/08 03:24:11;;;;;;;21.17;2.77;;;;;;;;;;4799302;28;20212;-84
2021/09/08 03:26:34;;;;;;;11.10;1.53;;;;;;;;;;4800516;28;20196;-83
2021/09/08 03:28:57;;;;;;;9.27;1.43;;;;;;;;;;4801058;28;20243;-85
2021/09/08 03:31:19;;;;;;;10.13;1.47;;;;;;;;;;4800501;28;20492;-80
2021/09/08 03:33:44;;;;;;;23.07;3.10;;;;;;;;;;4799360;28;20207;-86
2021/09/08 03:36:07;;;;;;;18.67;2.47;;;;;;;;;;4796459;28;20195;-85
2021/09/08 03:38:30;;;;;;;11.57;1.73;;;7.90;37.70;;;;;;4800328;28;20188;-85
2021/09/08 03:40:53;;;;;;;9.87;1.40;;;;;;;;;;4783279;28;20188;-84
2021/09/08 03:43:16;;;;;;;22.47;2.87;;;;;;;;;;4800391;28;20270;-85
2021/09/08 03:45:39;;;;;;;20.13;2.57;;;;;;;;;;4798902;28;20319;-85
2021/09/08 03:48:03;;;;;;;12.00;1.67;;;;;;;;;;4799665;28;20200;-85
2021/09/08 03:50:26;;;;;;;12.47;1.67;;;;;;;;;;4800089;28;20188;-86
2021/09/08 03:52:50;;;;;;;16.57;2.13;;;;;;;;;;4799835;28;20192;-84
2021/09/08 03:55:14;;;;;;;25.30;3.23;;;7.70;36.50;;;;;;4798967;28;20195;-85
2021/09/08 03:57:37;;;;;;;10.63;1.50;;;;;;;;;;4782674;28;20200;-84
2021/09/08 04:00:00;;;;;;;9.27;1.40;;;;;;;;;;4800143;28;20255;-77
2021/09/08 04:02:22;;;;;;;10.57;1.50;;;;;;;;;;4788678;28;20240;-79
2021/09/08 04:04:45;;;;;;;12.57;1.77;;;;;;;;;;4791144;28;20692;-84
2021/09/08 04:07:08;;;;;;;15.17;2.00;;;;;;;;;;4782034;28;20251;-84
2021/09/08 04:09:31;;;;;;;12.53;1.80;;;;;;;;;;4766683;28;20284;-85
2021/09/08 04:11:54;;;;;;;12.10;1.73;;;7.70;35.20;;;;;;4799612;28;20188;-84
2021/09/08 04:14:17;;;;;;;16.63;2.33;;;;;;;;;;4782783;28;20673;-84
2021/09/08 04:16:42;;;;;;;14.73;2.03;;;;;;;;;;4781728;28;20216;-83
2021/09/08 04:19:05;;;;;;;21.57;2.87;;;;;;;;;;4799114;28;20227;-84
2021/09/08 04:21:28;;;;;;;9.63;1.50;;;;;;;;;;4799919;28;20188;-86
2021/09/08 04:23:51;;;;;;;14.53;2.07;;;;;;;;;;4799708;28;20242;-86
2021/09/08 04:26:14;;;;;;;24.03;3.13;;;;;;;;;;4799236;28;20535;-86
2021/09/08 04:28:38;;;;;;;17.17;2.50;;;8.10;34.40;;;;;;4798511;28;20192;-79
2021/09/08 04:31:00;;;;;;;10.33;1.57;;;;;;;;;;4798730;28;20254;-81
2021/09/08 04:33:23;;;;;;;6.70;1.20;;;;;;;;;;4790071;28;20196;-79
2021/09/08 04:35:46;;;;;;;11.27;1.70;;;;;;;;;;4798838;28;20247;-83
2021/09/08 04:38:09;;;;;;;19.23;2.53;;;;;;;;;;4799340;28;20662;-85
2021/09/08 04:40:31;;;;;;;12.53;1.80;;;;;;;;;;4800240;28;20192;-85
2021/09/08 04:42:54;;;;;;;10.83;1.60;;;;;;;;;;4800301;28;20195;-84
2021/09/08 04:45:18;;;;;;;15.47;2.10;;;8.50;31.50;;;;;;4799939;28;20188;-86
2021/09/08 04:47:41;;;;;;;16.83;2.30;;;;;;;;;;4797891;28;20252;-85
2021/09/08 04:50:04;;;;;;;12.60;1.77;;;8.50;31.30;;;;;;4781499;28;20212;-84
2021/09/08 04:52:32;;;;;;;16.00;2.23;;;;;;;;;;4782862;28;20263;-84
2021/09/08 04:54:55;;;;;;;10.03;1.43;;;;;;;;;;4798722;28;20188;-83
2021/09/08 04:57:17;;;;;;;18.43;2.50;;;;;;;;;;4801058;28;20270;-82
2021/09/08 04:59:40;;;;;;;9.33;1.37;;;;;;;;;;4802778;28;20258;-84
2021/09/08 05:02:04;;;;;;;15.53;2.10;;;8.70;31.50;;;;;;4793542;28;20263;-83
2021/09/08 05:04:27;;;;;;;13.70;1.97;;;;;;;;;;4799109;28;20219;-86
2021/09/08 05:06:51;;;;;;;10.73;1.53;;;;;;;;;;4803519;28;20195;-85
2021/09/08 05:09:13;;;;;;;19.37;2.60;;;;;;;;;;4803194;28;20196;-84
2021/09/08 05:11:36;;;;;;;9.47;1.40;;;;;;;;;;4785662;28;20192;-86
2021/09/08 05:14:00;;;;;;;9.13;1.40;;;;;;;;;;4785514;28;20209;-84
2021/09/08 05:16:22;;;;;;;12.80;1.83;;;;;;;;;;4802793;28;20674;-85
2021/09/08 05:18:46;;;;;;;13.13;1.87;;;9.10;30.70;;;;;;4802383;28;20250;-83
2021/09/08 05:21:09;;;;;;;18.50;2.50;;;;;;;;;;4784277;28;20196;-83
2021/09/08 05:23:31;;;;;;;12.60;1.87;;;;;;;;;;4785122;28;20220;-79
2021/09/08 05:25:54;;;;;;;14.03;2.00;;;;;;;;;;4802523;28;20184;-77
2021/09/08 05:28:17;;;;;;;17.93;2.47;;;;;;;;;;4802456;28;20234;-76
2021/09/08 05:30:40;;;;;;;15.67;2.10;;;;;;;;;;4802288;28;20728;-76
2021/09/08 05:33:02;;;;;;;13.53;1.93;;;;;;;;;;4801903;28;20258;-76
2021/09/08 05:35:26;;;;;;;10.83;1.57;;;9.60;30.40;;;;;;4802331;28;20263;-75
2021/09/08 05:37:49;;;;;;;15.03;2.03;;;;;;;;;;4802437;28;20188;-74
2021/09/08 05:40:12;;;;;;;18.03;2.43;;;;;;;;;;4802113;28;20192;-73
2021/09/08 05:42:35;;;;;;;9.60;1.43;;;;;;;;;;4791795;28;20260;-74
2021/09/08 05:44:58;;;;;;;8.90;1.43;;;;;;;;;;4790636;28;20212;-75
2021/09/08 05:47:20;;;;;;;8.30;1.30;;;;;;;;;;4803488;28;20187;-87
2021/09/08 05:49:43;;;;;;;10.10;1.47;;;;;;;;;;4802526;28;20238;-86
2021/09/08 05:52:07;;;;;;;22.27;3.00;;;10.30;99.90;;;;;;4802142;28;20184;-80
2021/09/08 05:54:30;;;;;;;15.63;2.20;;;;;;;;;;4801582;28;20192;-83
2021/09/08 05:56:52;;;;;;;13.87;1.90;;;;;;;;;;4802168;28;20250;-82
2021/09/08 05:59:15;;;;;;;18.17;2.37;;;;;;;;;;4801657;28;20200;-82
2021/09/08 06:01:38;;;;;;;10.43;1.57;;;;;;;;;;4795634;28;20901;-82
2021/09/08 06:04:01;;;;;;;10.73;1.60;;;;;;;;;;4795518;28;20204;-77
2021/09/08 06:06:24;;;;;;;10.77;1.50;;;;;;;;;;4801785;28;20192;-83
2021/09/08 06:08:47;;;;;;;9.87;1.40;;;11.30;99.90;;;;;;4801114;28;20231;-74
2021/09/08 06:11:10;;;;;;;18.50;2.47;;;;;;;;;;4801532;28;20199;-73
2021/09/08 06:13:33;;;;;;;21.87;2.90;;;;;;;;;;4784128;28;20192;-77
2021/09/08 06:15:56;;;;;;;9.17;1.37;;;;;;;;;;4801550;28;20212;-75
2021/09/08 06:18:19;;;;;;;18.00;2.47;;;;;;;;;;4801351;28;20250;-75
2021/09/08 06:20:41;;;;;;;12.10;1.70;;;;;;;;;;4800964;28;20228;-73
2021/09/08 06:23:04;;;;;;;15.03;2.03;;;;;;;;;;4801430;28;20600;-74
2021/09/08 06:25:28;;;;;;;7.27;1.10;;;12.20;99.90;;;;;;4800771;28;20212;-74
2021/09/08 06:27:51;;;;;;;10.87;1.53;;;;;;;;;;4801498;28;20184;-75
2021/09/08 06:30:14;;;;;;;18.00;2.40;;;;;;;;;;4801278;28;20600;-74
2021/09/08 06:32:36;;;;;;;13.27;1.80;;;;;;;;;;4801494;28;20184;-74
2021/09/08 06:34:59;;;;;;;18.93;2.40;;;;;;;;;;4800797;28;20610;-74
2021/09/08 06:37:22;;;;;;;9.67;1.37;;;;;;;;;;4783415;28;20851;-78
2021/09/08 06:39:45;;;;;;;6.77;0.97;;;;;;;;;;4801949;28;20234;-73
2021/09/08 06:42:09;;;;;;;20.80;2.67;;;13.00;30.00;;;;;;4783392;28;20737;-75
2021/09/08 06:44:34;;;;;;;10.30;1.47;;;;;;;;;;4801393;28;20230;-74
2021/09/08 06:46:57;;;;;;;10.00;1.43;;;;;;;;;;4800719;28;20259;-74
2021/09/08 06:49:20;;;;;;;13.87;1.93;;;13.50;31.70;;;;;;4801145;28;20228;-74
2021/09/08 06:51:43;;;;;;;9.33;1.37;;;;;;;;;;4801316;28;20241;-74
2021/09/08 06:54:05;;;;;;;18.97;2.50;;;;;;;;;;4800860;28;20591;-75
2021/09/08 06:56:28;;;;;;;17.37;2.30;;;;;;;;;;4800400;28;20197;-74
2021/09/08 06:58:52;;;;;;;11.57;1.63;;;14.10;42.00;;;;;;4801108;28;20192;-76
2021/09/08 07:01:15;;;;;;;21.13;2.67;;;;;;;;;;4781368;28;20185;-75
2021/09/08 07:03:37;;;;;;;14.83;2.07;;;;;;;;;;4782535;28;20232;-74
2021/09/08 07:06:00;;;;;;;10.00;1.40;;;;;;;;;;4801081;28;20690;-75
2021/09/08 07:08:23;;;;;;;9.70;1.40;;;;;;;;;;4800143;28;20251;-77
2021/09/08 07:10:46;;;;;;;9.33;1.30;;;;;;;;;;4800897;28;20196;-74
2021/09/08 07:13:08;;;;;;;11.13;1.50;;;;;;;;;;4799337;28;20522;-74
2021/09/08 07:15:33;;;;;;;11.90;1.53;;;15.20;46.50;;;;;;4783364;28;20671;-74
2021/09/08 07:17:56;;;;;;;22.70;2.97;;;;;;;;;;4799727;28;20670;-74
2021/09/08 07:20:20;;;;;;;22.40;2.90;;;;;;;;;;4800074;28;20267;-76
2021/09/08 07:22:43;;;;;;;16.40;2.23;;;15.70;47.60;;;;;;4800046;28;20235;-75
2021/09/08 07:25:06;;;;;;;16.60;2.13;;;15.90;48.00;;;;;;4800419;28;20246;-74
2021/09/08 07:27:29;;;;;;;7.50;1.07;;;;;;;;;;4800682;28;20196;-73
2021/09/08 07:29:53;;;;;;;11.47;1.57;;;;;;;;;;4799872;28;20185;-74
2021/09/08 07:32:17;;;;;;;25.90;3.27;;;16.30;48.80;;;;;;4800429;28;20219;-75
2021/09/08 07:34:40;;;;;;;11.23;1.50;;;;;;;;;;4799612;28;20216;-74
2021/09/08 07:37:04;;;;;;;14.03;1.80;;;;;;;;;;4800148;28;20733;-82
2021/09/08 07:39:26;;;;;;;10.10;1.33;;;;;;;;;;4799686;28;20721;-75
2021/09/08 07:41:49;;;;;;;12.43;1.63;;;;;;;;;;4800187;28;20655;-75
2021/09/08 07:44:12;;;;;;;18.70;2.37;;;;;;;;;;4799896;28;20184;-75
2021/09/08 07:46:35;;;;;;;12.67;1.73;;;;;;;;;;4800251;28;20196;-74
2021/09/08 07:48:59;;;;;;;11.87;1.53;;;17.50;49.90;;;;;;4779641;28;20188;-75
2021/09/08 07:51:22;;;;;;;11.00;1.50;;;;;;;;;;4799504;28;20191;-74
2021/09/08 07:53:44;;;;;;;10.40;1.33;;;;;;;;;;4800100;28;20196;-73
2021/09/08 07:56:07;;;;;;;18.37;2.33;;;;;;;;;;4799818;28;20192;-75
2021/09/08 07:58:30;;;;;;;10.77;1.40;;;;;;;;;;4799929;28;20250;-75
2021/09/08 08:00:52;;;;;;;18.60;2.33;;;;;;;;;;4797486;28;20200;-74
2021/09/08 08:03:15;;;;;;;16.77;2.20;;;;;;;;;;4782624;28;20240;-75
2021/09/08 08:05:39;;;;;;;15.27;2.07;;;18.80;50.80;;;;;;4780387;28;20271;-75
2021/09/08 08:08:02;;;;;;;13.73;1.67;;;19.00;51.20;;;;;;4781113;29;20193;-76
2021/09/08 08:10:25;;;;;;;7.63;1.07;;;;;;;;;;4781219;29;20684;-74
2021/09/08 08:12:48;;;;;;;9.73;1.37;;;;;;;;;;4780851;29;20192;-76
2021/09/08 08:15:13;;;;;;;19.20;2.40;;;19.50;51.70;;;;;;4781045;29;20251;-75
2021/09/08 08:17:36;;;;;;;10.57;1.43;;;19.60;51.90;;;;;;4781172;28;20290;-75
2021/09/08 08:20:00;;;;;;;11.60;1.57;;;;;;;;;;4780979;29;20286;-75
2021/09/08 08:22:24;;;;;;;10.53;1.43;;;19.90;52.50;;;;;;4780902;29;20185;-76
2021/09/08 08:24:47;;;;;;;10.60;1.43;;;;;;;;;;4781137;29;20209;-76
2021/09/08 08:27:10;;;;;;;18.47;2.43;;;;;;;;;;4780749;29;20283;-75
2021/09/08 08:29:33;;;;;;;9.57;1.30;;;;;;;;;;4781079;29;20189;-79
2021/09/08 08:31:56;;;;;;;13.93;1.80;;;;;;;;;;4780726;29;20193;-76
2021/09/08 08:34:19;;;;;;;18.20;2.43;;;;;;;;;;4780432;29;20869;-77
2021/09/08 08:36:42;;;;;;;11.40;1.60;;;;;;;;;;4780895;29;20233;-75
2021/09/08 08:39:05;;;;;;;14.80;1.93;;;21.00;53.70;;;;;;4780819;29;20194;-75
2021/09/08 08:41:28;;;;;;;4.30;0.77;;;;;;;;;;4781164;29;20251;-82
2021/09/08 08:43:51;;;;;;;11.57;1.70;;;21.30;54.20;;;;;;4779800;29;20198;-83
2021/09/08 08:46:16;;;;;;;19.60;2.97;;;;;;;;;;4780187;29;20214;-81
2021/09/08 08:48:39;;;;;;;27.90;3.67;;;;;;;;;;4779820;28;20196;-81
2021/09/08 08:51:02;;;;;;;17.77;2.17;;;;;;;;;;4780106;29;20183;-82
2021/09/08 08:53:25;;;;;;;31.53;7.67;;;;;;;;;;4779901;29;20677;-80
2021/09/08 08:55:49;;;;;;;21.83;18.70;;;22.70;56.30;;;;;;4780109;28;20608;-80
2021/09/08 08:58:12;;;;;;;35.57;21.17;;;;;;;;;;4763456;29;20681;-82
2021/09/08 09:00:35;;;;;;;253.97;145.47;;;;;;;;;;4778952;29;20749;-79
2021/09/08 09:02:58;;;;;;;53.43;47.60;;;;;;;;;;4796088;28;20265;-82
2021/09/08 09:05:33;;;;;;;45.57;41.50;;;26.10;44.30;;;;;;4798531;28;20226;-81
2021/09/08 09:07:56;;;;;;;12.80;1.67;;;;;;;;;;4799476;28;20192;-83
2021/09/08 09:10:19;;;;;;;51.37;43.60;;;;;;;;;;4799148;28;20194;-82
2021/09/08 09:12:47;;;;;;;55.23;51.33;;;31.40;48.20;;;;;;4799311;28;20224;-83
2021/09/08 09:15:11;;;;;;;75.40;68.57;;;33.30;49.30;;;;;;4782211;28;20674;-84
2021/09/08 09:17:35;;;;;;;139.13;129.43;;;34.80;50.00;;;;;;4799079;28;20326;-82
2021/09/08 09:19:58;;;;;;;151.20;141.73;;;;;;;;;;4798759;28;20286;-84
2021/09/08 09:22:25;;;;;;;49.80;44.58;;;37.40;51.20;;;;;;4802070;28;20219;-85
2021/09/08 09:24:53;;;;;;;12.32;6.47;;;38.30;51.60;;;;;;4799973;28;20686;-79
2021/09/08 09:27:16;;;;;;;32.00;27.08;;;;;;;;;;4798949;28;20192;-83
2021/09/08 09:29:44;;;;;;;169.65;158.88;;;39.10;52.00;;;;;;4782677;28;20698;-83
2021/09/08 09:32:07;;;;;;;187.80;174.88;;;;;;;;;;4800702;28;20188;-80
2021/09/08 09:34:31;;;;;;;67.95;62.42;;;40.70;52.50;;;;;;4780861;28;20205;-85
2021/09/08 09:36:55;;;;;;;245.05;229.32;;;40.90;52.90;;;;;;4798275;28;20238;-80
2021/09/08 09:39:17;;;;;;;38.65;7.82;;;;;;;;;;4780462;28;20243;-83
2021/09/08 09:41:40;;;;;;;25.90;3.38;;;;;;;;;;4781554;28;20260;-87
2021/09/08 09:44:10;;;;;;;18.92;2.40;;;43.10;53.60;;;;;;4800328;28;20192;-82
2021/09/08 09:46:34;;;;;;;23.83;2.92;;;43.60;53.80;;;;;;4800968;28;20337;-79
2021/09/08 09:48:57;;;;;;;27.15;3.90;;;;;;;;;;4801361;28;20192;-83
2021/09/08 09:51:20;;;;;;;33.45;4.35;;;;;;;;;;4802077;28;20188;-84
2021/09/08 09:53:43;;;;;;;25.58;6.75;;;45.00;54.20;;;;;;4801912;28;20184;-82
2021/09/08 09:56:06;;;;;;;23.52;4.15;;;;;;;;;;4802157;28;20184;-83
2021/09/08 09:58:28;;;;;;;13.23;4.93;;;;;;;;;;4784263;28;20584;-83
2021/09/08 10:00:52;;;;;;;60.95;31.48;;;46.70;54.80;;;;;;4782964;28;20212;-81
2021/09/08 10:03:16;;;;;;;79.72;73.22;;;47.40;55.00;;;;;;4783164;28;20236;-82
2021/09/08 10:05:39;;;;;;;50.50;46.47;;;;;;;;;;4792134;28;20212;-81
2021/09/08 10:08:03;;;;;;;119.40;111.03;;;48.30;55.30;;;;;;4801502;28;20239;-82
2021/09/08 10:10:30;;;;;;;33.05;30.23;;;49.30;55.80;;;;;;4801148;28;20196;-80
2021/09/08 10:12:57;;;;;;;34.55;29.15;;;48.50;55.60;;;;;;4801521;28;20195;-73
2021/09/08 10:15:20;;;;;;;46.03;39.65;;;;;;;;;;4784126;28;20236;-82
2021/09/08 10:17:43;;;;;;;326.40;304.88;;;49.10;55.80;;;;;;4789516;28;20611;-86
2021/09/08 10:20:11;;;;;;;310.85;292.30;;;49.00;55.80;;;;;;4791454;28;20233;-75
2021/09/08 10:22:39;;;;;;;279.52;263.40;;;48.50;55.60;;;;;;4785889;28;20619;-83
2021/09/08 10:25:09;;;;;;;97.35;91.43;;;48.40;55.50;;;;;;4801437;28;20779;-77
2021/09/08 10:27:32;;;;;;;75.88;67.18;;;;;;;;;;4800924;28;20732;-84
2021/09/08 10:29:55;;;;;;;30.88;27.67;;;;;;;;;;4800772;28;20199;-85
2021/09/08 10:32:19;;;;;;;33.17;13.10;;;49.30;55.80;;;;;;4801048;28;20188;-78
2021/09/08 10:34:42;;;;;;;20.73;7.25;;;;;;;;;;4786852;28;20386;-91
2021/09/08 10:37:06;;;;;;;34.50;17.10;;;50.10;56.20;;;;;;4802133;28;20208;-80
2021/09/08 10:39:29;;;;;;;17.60;2.60;;;;;;;;;;4802152;28;20706;-85
2021/09/08 10:41:54;;;;;;;12.25;1.65;;;49.70;56.00;;;;;;4789809;28;20258;-90
2021/09/08 10:44:18;;;;;;;17.60;2.45;;;48.30;54.70;;;;;;4804134;28;20192;-85
2021/09/08 10:46:53;;;;;;;22.75;2.83;;;49.60;56.00;;;;;;4802526;28;20230;-87
2021/09/08 10:49:47;;;;;;;30.38;3.97;;;48.10;55.70;;;;;;4801487;28;20251;-85
2021/09/08 10:52:12;;;;;;;20.02;2.47;;;48.20;55.60;;;;;;4782933;29;20589;-86
2021/09/08 10:55:12;;;;;;;15.55;3.25;;;48.70;55.80;;;;;;4784454;28;20582;-89
2021/09/08 10:57:58;;;;;;;70.25;49.70;;;46.60;55.10;;;;;;4792134;28;20207;-84
2021/09/08 11:00:24;;;;;;;30.58;13.85;;;47.20;55.30;;;;;;4800738;28;20179;-83
2021/09/08 11:02:47;;;;;;;23.70;3.10;;;;;;;;;;4785585;28;20228;-77
2021/09/08 11:05:10;;;;;;;31.67;4.50;;;47.20;55.30;;;;;;4799634;28;20216;-84
2021/09/08 11:07:34;;;;;;;54.50;32.58;;;47.50;55.40;;;;;;4796626;28;20181;-77
2021/09/08 11:09:57;;;;;;;55.75;50.55;;;;;;;;;;4782600;29;20216;-84
2021/09/08 11:12:20;;;;;;;45.30;10.85;;;;;;;;;;4786127;28;20223;-79
2021/09/08 11:14:47;;;;;;;12.40;1.80;;;48.90;55.70;;;;;;4782317;29;20192;-75
2021/09/08 11:17:19;;;;;;;19.70;2.78;;;49.40;56.00;;;;;;4783222;28;20221;-76
2021/09/08 11:19:49;;;;;;;14.25;2.13;;;49.40;55.90;;;;;;4781649;28;20287;-75
2021/09/08 11:22:17;;;;;;;29.17;4.50;;;49.80;56.10;;;;;;4785222;28;20243;-76
2021/09/08 11:24:42;;;;;;;11.27;1.75;;;50.50;56.40;;;;;;4800814;28;20263;-75
2021/09/08 11:27:08;;;;;;;20.08;2.80;;;50.10;56.20;;;;;;4800238;28;20191;-75
2021/09/08 11:29:31;;;;;;;28.23;17.23;;;;;;;;;;4797311;28;20187;-78
2021/09/08 11:31:53;;;;;;;18.85;2.70;;;;;;;;;;4799898;28;20665;-87
2021/09/08 11:34:21;;;;;;;45.85;18.98;;;46.60;55.00;;;;;;4782632;28;20228;-86
2021/09/08 11:36:47;;;;;;;25.63;3.53;;;48.40;55.70;;;;;;4795658;28;20219;-85
2021/09/08 11:39:15;;;;;;;92.60;84.45;;;49.40;56.00;;;;;;4789727;28;20193;-91
2021/09/08 11:41:53;;;;;;;107.25;98.82;;;50.00;56.20;;;;;;4795566;28;20187;-85
2021/09/08 11:44:16;;;;;;;79.90;73.57;;;;;;;;;;4784023;28;20224;-84
2021/09/08 11:46:38;;;;;;;59.05;53.65;;;;;;;;;;4804847;28;20257;-82
2021/09/08 11:49:08;;;;;;;35.90;32.65;;;50.70;56.40;;;;;;4802015;28;20211;-96
2021/09/08 11:51:34;;;;;;;9.70;2.05;;;49.30;55.90;;;;;;4802386;28;20188;-76
2021/09/08 11:53:57;;;;;;;12.75;4.57;;;;;;;;;;4800640;28;20616;-76
2021/09/08 11:56:21;;;;;;;20.65;2.72;;;50.00;56.20;;;;;;4799327;28;20188;-91
2021/09/08 11:58:53;;;;;;;16.38;5.30;;;50.00;56.30;;;;;;4801071;28;20231;-85
2021/09/08 12:01:15;;;;;;;116.38;106.55;;;;;;;;;;4795334;28;20227;-86
2021/09/08 12:03:40;;;;;;;461.77;412.05;;;50.20;56.30;;;;;;4779205;28;20681;-78
2021/09/08 12:06:16;;;;;;;453.95;404.67;;;50.90;56.60;;;;;;4785419;28;20195;-76
2021/09/08 12:08:48;;;;;;;463.48;414.33;;;50.90;56.60;;;;;;4771344;29;20595;-75
2021/09/08 12:11:12;;;;;;;456.48;406.70;;;;;;;;;;4800427;28;20592;-81
2021/09/08 12:13:35;;;;;;;443.73;394.95;;;;;;;;;;4799803;28;20188;-76
2021/09/08 12:15:59;;;;;;;458.48;407.42;;;48.30;55.70;;;;;;4799184;28;20192;-75
2021/09/08 12:18:21;;;;;;;454.73;405.25;;;;;;;;;;4798509;28;20430;-81
2021/09/08 12:20:44;;;;;;;469.33;419.63;;;;;;;;;;4800260;28;20219;-76
2021/09/08 12:23:23;;;;;;;455.10;405.65;;;51.50;56.80;;;;;;4799731;28;20195;-79
2021/09/08 12:26:06;;;;;;;463.73;414.30;;;52.90;57.20;;;;;;4799485;28;20180;-79
2021/09/08 12:28:29;;;;;;;470.73;421.40;;;;;;;;;;4798021;28;20184;-82
2021/09/08 12:31:17;;;;;;;469.10;419.15;;;53.00;57.30;;;;;;4799555;28;20246;-75
2021/09/08 12:33:52;;;;;;;478.48;428.80;;;53.00;57.30;;;;;;4799821;28;20183;-82
2021/09/08 12:36:16;;;;;;;465.27;414.85;;;51.70;56.90;;;;;;4781738;28;20238;-81
2021/09/08 12:38:40;;;;;;;481.20;430.67;;;53.00;57.20;;;;;;4798469;28;20207;-85
2021/09/08 12:41:15;;;;;;;471.67;422.13;;;51.00;56.60;;;;;;4799520;28;20860;-84
2021/09/08 12:43:38;;;;;;;465.77;416.17;;;;;;;;;;4798093;28;20557;-76
2021/09/08 12:46:01;;;;;;;464.35;414.90;;;;;;;;;;4799787;28;20242;-78
2021/09/08 12:48:26;;;;;;;466.05;406.85;;;50.80;56.40;;;;;;4796984;28;20195;-81
2021/09/08 12:50:49;;;;;;;445.80;396.80;;;;;;;;;;4782013;28;20274;-78
2021/09/08 12:53:12;;;;;;;456.45;402.58;;;;;;;;;;4800709;28;20242;-76
2021/09/08 12:55:35;;;;;;;449.90;400.95;;;53.40;57.30;;;;;;4798938;28;20666;-75
2021/09/08 13:10:03;;;;;;;485.33;438.63;;;49.20;56.10;;;;;;4925708;27;20809;-87
2021/09/08 13:12:26;;;;;;;466.70;417.98;;;;;;;;;;4900009;28;20186;-87
2021/09/08 13:14:49;;;;;;;460.77;410.65;;;;;;;;;;4905576;28;20175;-82
2021/09/08 13:17:12;;;;;;;450.48;391.42;;;;;;;;;;4885044;28;20180;-85
2021/09/08 13:19:35;;;;;;;446.17;388.58;;;;;;;;;;4900565;28;20195;-82
2021/09/08 13:21:58;;;;;;;451.90;380.73;;;;;;;;;;4899198;28;20205;-83
2021/09/08 13:24:20;;;;;;;453.73;386.42;;;;;;;;;;4905454;28;20214;-79
2021/09/08 13:26:46;;;;;;;446.67;378.63;;;40.40;52.90;;;;;;4900026;28;20180;-83
2021/09/08 13:29:11;;;;;;;446.27;365.95;;;39.30;52.70;;;;;;4890602;28;20220;-78
2021/09/08 13:31:34;;;;;;;441.85;351.80;;;37.40;52.20;;;;;;4891210;28;20199;-79
2021/09/08 13:33:57;;;;;;;441.17;333.52;;;;;;;;;;4890592;28;20188;-81
2021/09/08 13:36:22;;;;;;;452.13;338.25;;;34.40;51.00;;;;;;4890173;28;20181;-80
2021/09/08 13:38:45;;;;;;;432.85;314.88;;;;;;;;;;4890997;28;20239;-81